Terminal Aerodrome Forecast
Issued by NWS

Home | Current Version | Previous Version | Text Only | Print | Product List | Glossary On
Versions: 1 2 3 4 5 6 7 8 9 10 11 12 13
000
FTUS44 KEPZ 041720
TAFDMN
TAF
KDMN 041720Z 0418/0518 29008KT P6SM VCSH SCT090 BKN110 OVC200
     FM050000 VRB04KT P6SM VCTS SCT080CB OVC120
      TEMPO 0500/0504 4SM -TSRA BKN040CB
     FM050600 VRB04KT P6SM SCT080 BKN150=

USA.gov is the U.S. government's official web portal to all federal, state and local government web resources and services.